Time;durP1;ratioP1;P1;durP2;ratioP2;P2;SDS_P1;SDS_P2;PMS_P1;PMS_P2;Temp;Humidity;BMP_temperature;BMP_pressure;BME280_temperature;BME280_humidity;BME280_pressure;Samples;Min_cycle;Max_cycle;Signal;HPM_P1;HPM_P2
2022/10/22 00:00:42;;;;;;;1.03;1.03;;;;;;;8.64;86.56;100409.22;5018639;28;20296;-69
2022/10/22 00:03:10;;;;;;;1.00;1.00;;;;;;;8.63;87.10;100404.97;5013434;28;20202;-68
2022/10/22 00:05:38;;;;;;;0.80;0.80;;;;;;;8.60;87.30;100397.31;5011176;28;20600;-68
2022/10/22 00:08:05;;;;;;;0.63;0.63;;;;;;;8.62;87.02;100400.72;5008441;28;20614;-68
2022/10/22 00:10:32;;;;;;;0.80;0.80;;;;;;;8.63;87.52;100397.31;4987109;28;20590;-68
2022/10/22 00:12:59;;;;;;;0.70;0.70;;;;;;;8.50;87.04;100375.25;5009967;28;20229;-68
2022/10/22 00:15:26;;;;;;;0.80;0.80;;;;;;;8.62;87.27;100391.38;5005856;28;20213;-68
2022/10/22 00:17:53;;;;;;;0.60;0.60;;;;;;;8.63;87.26;100376.84;5010463;28;20670;-68
2022/10/22 00:20:20;;;;;;;0.60;0.60;;;;;;;8.57;87.51;100366.66;5009224;28;20194;-68
2022/10/22 00:22:48;;;;;;;0.60;0.60;;;;;;;8.66;87.90;100371.75;5009695;28;20202;-68
2022/10/22 00:25:16;;;;;;;0.50;0.50;;;;;;;8.51;87.69;100349.69;5008193;28;20855;-68
2022/10/22 00:27:43;;;;;;;0.70;0.70;;;;;;;8.67;87.85;100379.38;5008746;28;20194;-68
2022/10/22 00:30:10;;;;;;;0.60;0.60;;;;;;;8.63;88.20;100371.75;5007826;28;20202;-68
2022/10/22 00:32:37;;;;;;;0.50;0.50;;;;;;;8.64;88.03;100365.78;5009245;28;20658;-68
2022/10/22 00:35:05;;;;;;;0.60;0.60;;;;;;;8.59;88.80;100362.41;5009598;28;20205;-69
2022/10/22 00:37:32;;;;;;;0.70;0.70;;;;;;;8.58;88.58;100368.38;5008154;28;20624;-68
2022/10/22 00:40:00;;;;;;;0.63;0.63;;;;;;;8.56;88.62;100375.22;5008962;28;20198;-68
2022/10/22 00:42:29;;;;;;;0.60;0.60;;;;;;;8.52;89.28;100359.06;5005571;28;20198;-68
2022/10/22 00:45:08;;;;;;;0.50;0.50;;;;;;;8.56;88.74;100355.63;5010143;28;20222;-68
2022/10/22 00:47:37;;;;;;;0.63;0.63;;;;;;;8.59;88.40;100359.88;5006161;28;20651;-68
2022/10/22 00:50:06;;;;;;;2.43;1.83;;;;;;;8.52;88.69;100358.19;5009620;28;20198;-68
2022/10/22 00:52:33;;;;;;;0.60;0.60;;;;;;;8.44;88.56;100359.09;5009916;28;20206;-68
2022/10/22 00:55:02;;;;;;;0.93;0.93;;;;;;;8.40;88.63;100357.41;5009591;28;20201;-68
2022/10/22 00:57:29;;;;;;;0.87;0.87;;;;;;;8.43;88.97;100352.28;5013230;28;20317;-68
2022/10/22 00:59:57;;;;;;;0.50;0.50;;;;;;;8.28;89.03;100348.97;5013405;28;20682;-68
2022/10/22 01:02:24;;;;;;;1.07;1.07;;;;;;;8.27;88.37;100358.31;5013382;28;20232;-68
2022/10/22 01:04:50;;;;;;;0.70;0.70;;;;;;;8.25;88.15;100359.19;5012387;28;20202;-68
2022/10/22 01:07:21;;;;;;;0.60;0.60;;;;;;;8.18;88.24;100353.25;5029327;28;20664;-68
2022/10/22 01:09:59;;;;;;;0.57;0.57;;;;;;;8.12;87.94;100362.66;5034517;28;20208;-68
2022/10/22 01:12:37;;;;;;;0.87;0.87;;;;;;;8.13;88.03;100347.34;5036523;28;20208;-68
2022/10/22 01:15:16;;;;;;;0.60;0.60;;;;;;;8.02;88.50;100320.97;5033097;28;20251;-68
2022/10/22 01:17:51;;;;;;;1.27;1.27;;;;;;;8.04;89.56;100342.28;5035715;28;20255;-68
2022/10/22 01:20:36;;;;;;;0.63;0.63;;;;;;;8.00;89.86;100342.28;5036094;28;20584;-68
2022/10/22 01:23:21;;;;;;;0.70;0.70;;;;;;;8.04;90.51;100339.72;5034517;28;20196;-68
2022/10/22 01:25:54;;;;;;;0.60;0.60;;;;;;;7.99;91.32;100336.31;5034463;28;20267;-68
2022/10/22 01:28:37;;;;;;;1.47;1.47;;;;;;;7.89;91.74;100339.78;5035359;28;20209;-68
2022/10/22 01:31:06;;;;;;;0.60;0.60;;;;;;;7.84;91.28;100342.38;5034933;28;20208;-68
2022/10/22 01:33:33;;;;;;;0.50;0.50;;;;;;;7.85;91.12;100350.88;5037990;28;20225;-68
2022/10/22 01:36:01;;;;;;;0.60;0.60;;;;;;;7.82;90.76;100350.84;5036483;28;20216;-68
2022/10/22 01:38:29;;;;;;;0.70;0.70;;;;;;;7.80;90.73;100350.88;5035531;28;20201;-68
2022/10/22 01:40:56;;;;;;;0.90;0.83;;;;;;;7.76;90.37;100333.00;5036768;28;20206;-68
2022/10/22 01:43:23;;;;;;;0.70;0.70;;;;;;;7.80;90.17;100337.25;5035826;28;20696;-68
2022/10/22 01:45:56;;;;;;;0.60;0.60;;;;;;;7.71;89.80;100325.41;5034732;28;20201;-68
2022/10/22 01:48:35;;;;;;;0.97;0.97;;;;;;;7.79;88.99;100335.56;5034943;28;20205;-68
2022/10/22 01:51:14;;;;;;;0.70;0.70;;;;;;;7.71;87.95;100329.66;5032857;28;20627;-68
2022/10/22 01:53:50;;;;;;;0.60;0.60;;;;;;;7.67;88.07;100340.72;5033895;28;20355;-68
2022/10/22 01:56:40;;;;;;;0.70;0.70;;;;;;;7.58;87.48;100335.66;5034006;28;20201;-68
2022/10/22 01:59:11;;;;;;;1.03;0.93;;;;;;;7.57;87.97;100342.44;5034769;28;20632;-68
2022/10/22 02:01:48;;;;;;;0.73;0.73;;;;;;;7.53;88.53;100334.81;5034131;28;20197;-68
2022/10/22 02:04:20;;;;;;;0.60;0.60;;;;;;;7.48;89.12;100341.63;5031997;28;20661;-68
2022/10/22 02:06:49;;;;;;;0.67;0.67;;;;;;;7.24;90.00;100315.31;5032246;28;20629;-68
2022/10/22 02:09:18;;;;;;;1.13;1.13;;;;;;;7.42;90.26;100339.09;5033007;28;20205;-68
2022/10/22 02:11:47;;;;;;;0.60;0.60;;;;;;;7.42;90.43;100341.66;5031795;28;20202;-68
2022/10/22 02:14:15;;;;;;;0.70;0.70;;;;;;;7.46;90.26;100351.00;5033015;28;20296;-68
2022/10/22 02:16:47;;;;;;;0.60;0.60;;;;;;;7.50;89.92;100350.97;5036436;28;20260;-68
2022/10/22 02:19:24;;;;;;;0.93;0.93;;;;;;;7.50;89.53;100352.66;5033219;28;20263;-68
2022/10/22 02:21:51;;;;;;;0.80;0.80;;;;;;;7.48;89.57;100346.72;5033663;28;20201;-68
2022/10/22 02:24:19;;;;;;;2.03;1.07;;;;;;;7.48;89.17;100349.28;5032918;28;20197;-68
2022/10/22 02:26:54;;;;;;;0.80;0.80;;;;;;;7.49;88.63;100345.88;5033017;28;20202;-68
2022/10/22 02:29:27;;;;;;;0.63;0.63;;;;;;;7.45;88.55;100349.28;5032584;28;20699;-68
2022/10/22 02:31:58;;;;;;;0.60;0.60;;;;;;;7.40;88.54;100346.72;5033917;28;20201;-68
2022/10/22 02:34:29;;;;;;;0.73;0.73;;;;;;;7.40;88.88;100344.19;5033823;28;20700;-68
2022/10/22 02:36:57;;;;;;;0.90;0.90;;;;;;;7.43;88.63;100348.47;5034677;28;20201;-68
2022/10/22 02:39:25;;;;;;;0.60;0.60;;;;;;;7.28;88.89;100329.78;5034882;28;20212;-68
2022/10/22 02:41:54;;;;;;;0.80;0.80;;;;;;;7.39;88.75;100358.66;5032492;28;20213;-69
2022/10/22 02:44:22;;;;;;;0.80;0.80;;;;;;;7.39;88.90;100347.59;5032554;28;20201;-68
2022/10/22 02:46:50;;;;;;;0.70;0.70;;;;;;;7.43;89.18;100343.34;5032225;28;20304;-69
2022/10/22 02:49:18;;;;;;;0.90;0.90;;;;;;;7.42;89.10;100339.09;5033479;28;20232;-69
2022/10/22 02:51:45;;;;;;;0.60;0.60;;;;;;;7.38;89.38;100345.91;5032385;28;20194;-69
2022/10/22 02:54:12;;;;;;;1.00;1.00;;;;;;;7.40;89.52;100344.19;5035081;28;20220;-68
2022/10/22 02:56:38;;;;;;;1.00;1.00;;;;;;;7.38;89.58;100339.09;5035313;28;20215;-68
2022/10/22 02:59:05;;;;;;;0.73;0.73;;;;;;;7.40;89.27;100333.97;5034531;28;20201;-68
2022/10/22 03:01:32;;;;;;;0.70;0.70;;;;;;;7.38;89.39;100351.00;5033019;28;20684;-68
2022/10/22 03:03:59;;;;;;;0.70;0.70;;;;;;;7.33;89.17;100348.44;5033381;28;20197;-69
2022/10/22 03:06:27;;;;;;;0.70;0.70;;;;;;;7.32;89.42;100346.78;5025187;28;20237;-69
2022/10/22 03:08:54;;;;;;;0.77;0.77;;;;;;;7.32;89.52;100346.78;5009325;28;20210;-69
2022/10/22 03:11:21;;;;;;;0.60;0.60;;;;;;;7.29;89.29;100339.13;5010945;28;20375;-69
2022/10/22 03:13:48;;;;;;;0.70;0.70;;;;;;;7.31;88.96;100344.22;5009313;28;20229;-69
2022/10/22 03:16:14;;;;;;;0.70;0.70;;;;;;;7.31;88.86;100346.75;5002800;28;20205;-69
2022/10/22 03:18:41;;;;;;;0.97;0.97;;;;;;;7.25;88.95;100339.13;5009700;28;20210;-69
2022/10/22 03:21:13;;;;;;;0.70;0.70;;;;;;;7.22;89.43;100339.13;5010524;28;20205;-69
2022/10/22 03:23:43;;;;;;;0.80;0.80;;;;;;;7.15;89.67;100348.50;5011153;28;20663;-69
2022/10/22 03:26:12;;;;;;;0.67;0.67;;;;;;;7.14;89.83;100351.88;5010622;28;20209;-69
2022/10/22 03:28:41;;;;;;;0.60;0.60;;;;;;;7.13;89.63;100340.00;5008977;28;20584;-69
2022/10/22 03:31:08;;;;;;;0.83;0.83;;;;;;;7.04;89.94;100334.91;5010110;28;20198;-69
2022/10/22 03:33:35;;;;;;;0.50;0.50;;;;;;;7.02;90.32;100331.50;5010605;28;20220;-69
2022/10/22 03:36:02;;;;;;;0.53;0.53;;;;;;;6.99;90.55;100343.41;5010395;28;20198;-69
2022/10/22 03:38:29;;;;;;;0.70;0.70;;;;;;;6.98;90.89;100334.91;5010633;28;20202;-69
2022/10/22 03:40:58;;;;;;;3.30;1.07;;;;;;;6.95;90.57;100332.34;5010473;28;20206;-69
2022/10/22 03:43:25;;;;;;;0.67;0.67;;;;;;;6.88;90.92;100333.22;5009902;28;20210;-69
2022/10/22 03:45:52;;;;;;;0.67;0.67;;;;;;;6.89;90.96;100334.91;5010360;28;20202;-69
2022/10/22 03:48:19;;;;;;;1.03;0.97;;;;;;;6.92;90.94;100339.16;5010054;28;20202;-69
2022/10/22 03:50:45;;;;;;;0.87;0.87;;;;;;;6.97;90.70;100343.41;5010579;28;20202;-69
2022/10/22 03:53:12;;;;;;;1.53;1.53;;;;;;;6.98;90.51;100339.19;5010084;28;20198;-69
2022/10/22 03:55:41;;;;;;;0.70;0.70;;;;;;;6.93;90.47;100328.97;5010261;28;20221;-69
2022/10/22 03:58:09;;;;;;;1.80;1.70;;;;;;;6.88;90.95;100338.34;5010056;28;20625;-69
2022/10/22 04:00:36;;;;;;;0.60;0.60;;;;;;;6.84;90.61;100342.56;5010469;28;20252;-69
2022/10/22 04:03:03;;;;;;;0.80;0.80;;;;;;;6.85;90.94;100348.50;5009583;28;20593;-69
2022/10/22 04:05:32;;;;;;;0.73;0.73;;;;;;;6.75;90.56;100332.34;5009738;28;20202;-69
2022/10/22 04:07:59;;;;;;;0.87;0.83;;;;;;;6.81;90.58;100346.81;5029585;28;20225;-69
2022/10/22 04:10:26;;;;;;;1.20;1.20;;;;;;;6.81;90.75;100351.91;5034592;28;20208;-69
2022/10/22 04:12:53;;;;;;;0.60;0.60;;;;;;;6.82;90.11;100348.50;5031552;28;20209;-69
2022/10/22 04:15:21;;;;;;;0.50;0.50;;;;;;;6.80;90.04;100350.22;5031481;28;20693;-69
2022/10/22 04:17:48;;;;;;;0.67;0.67;;;;;;;6.74;90.31;100355.31;5030146;28;20216;-69
2022/10/22 04:20:15;;;;;;;1.33;1.33;;;;;;;6.63;90.02;100342.56;5030731;28;20208;-69
2022/10/22 04:22:41;;;;;;;0.73;0.73;;;;;;;6.60;90.33;100346.78;5031277;28;20692;-69
2022/10/22 04:25:09;;;;;;;0.70;0.70;;;;;;;6.61;90.63;100348.50;5032065;28;20197;-69
2022/10/22 04:27:36;;;;;;;0.70;0.70;;;;;;;6.58;90.29;100358.69;5033248;28;20203;-69
2022/10/22 04:30:05;;;;;;;0.70;0.70;;;;;;;6.44;89.90;100340.84;5034578;28;20204;-69
2022/10/22 04:32:33;;;;;;;0.87;0.87;;;;;;;6.49;90.26;100348.50;5035557;28;20224;-69
2022/10/22 04:35:00;;;;;;;1.00;1.00;;;;;;;6.47;90.15;100350.16;5035669;28;20209;-69
2022/10/22 04:37:27;;;;;;;0.57;0.57;;;;;;;6.48;90.38;100351.88;5034634;28;20214;-69
2022/10/22 04:39:53;;;;;;;0.63;0.63;;;;;;;6.44;90.65;100350.16;5030905;28;20213;-69
2022/10/22 04:42:20;;;;;;;0.70;0.70;;;;;;;6.47;90.53;100350.16;5033611;28;20283;-69
2022/10/22 04:44:47;;;;;;;0.60;0.60;;;;;;;6.45;91.21;100351.88;5034310;28;20205;-69
2022/10/22 04:47:14;;;;;;;0.83;0.83;;;;;;;6.49;91.21;100341.72;5035943;28;20202;-69
2022/10/22 04:49:42;;;;;;;0.80;0.80;;;;;;;6.48;91.16;100339.16;5034878;28;20205;-69
2022/10/22 04:52:09;;;;;;;0.80;0.80;;;;;;;6.34;92.13;100317.06;5036428;28;20208;-70
2022/10/22 04:54:36;;;;;;;0.70;0.70;;;;;;;6.47;92.18;100334.88;5035645;28;20226;-69
2022/10/22 04:57:02;;;;;;;0.67;0.67;;;;;;;6.51;92.42;100332.34;5030716;28;20201;-69
2022/10/22 04:59:29;;;;;;;1.00;1.00;;;;;;;6.54;92.52;100331.50;5031673;28;20209;-69
2022/10/22 05:01:56;;;;;;;0.67;0.67;;;;;;;6.47;92.46;100334.88;5034577;28;20582;-69
2022/10/22 05:04:23;;;;;;;0.70;0.70;;;;;;;6.28;93.49;100329.78;5033013;28;20205;-69
2022/10/22 05:06:51;;;;;;;0.87;0.87;;;;;;;6.27;93.94;100317.03;5024519;28;20690;-69
2022/10/22 05:09:20;;;;;;;0.70;0.70;;;;;;;6.29;94.15;100318.75;5011901;28;20648;-69
2022/10/22 05:11:49;;;;;;;0.77;0.77;;;;;;;6.32;94.14;100321.31;5012375;28;20197;-69
2022/10/22 05:14:17;;;;;;;0.70;0.70;;;;;;;6.36;94.39;100322.16;5004790;28;20327;-69
2022/10/22 05:16:46;;;;;;;0.97;0.97;;;;;;;6.33;94.49;100328.06;5013140;28;20248;-69
2022/10/22 05:19:17;;;;;;;0.70;0.70;;;;;;;6.40;94.40;100333.22;5012713;28;20213;-69
2022/10/22 05:21:45;;;;;;;0.93;0.93;;;;;;;6.43;93.99;100333.22;5011909;28;20202;-70
2022/10/22 05:24:13;;;;;;;0.70;0.70;;;;;;;6.46;94.31;100334.06;5012222;28;20221;-69
2022/10/22 05:26:40;;;;;;;0.63;0.63;;;;;;;6.50;94.33;100329.78;5010560;28;20206;-69
2022/10/22 05:29:07;;;;;;;0.90;0.90;;;;;;;6.54;94.26;100331.50;5012734;28;20539;-69
2022/10/22 05:31:34;;;;;;;0.90;0.90;;;;;;;6.58;94.60;100333.22;5011956;28;20202;-69
2022/10/22 05:34:01;;;;;;;1.33;1.07;;;;;;;6.60;94.79;100323.88;5011581;28;20202;-69
2022/10/22 05:36:28;;;;;;;0.60;0.60;;;;;;;6.65;94.47;100329.84;5012223;28;20248;-69
2022/10/22 05:38:55;;;;;;;0.73;0.73;;;;;;;6.71;94.94;100329.81;5012919;28;20202;-69
2022/10/22 05:41:25;;;;;;;0.63;0.63;;;;;;;6.76;94.56;100335.75;5011502;28;20306;-69
2022/10/22 05:43:54;;;;;;;0.73;0.73;;;;;;;6.80;95.40;100330.69;5012545;28;20209;-69
2022/10/22 05:46:22;;;;;;;0.70;0.70;;;;;;;6.87;95.38;100323.88;5012234;28;20202;-69
2022/10/22 05:48:50;;;;;;;0.80;0.80;;;;;;;6.89;95.56;100322.16;5012684;28;20213;-69
2022/10/22 05:51:18;;;;;;;0.70;0.70;;;;;;;6.95;95.75;100321.34;5011779;28;20198;-69
2022/10/22 05:53:45;;;;;;;0.93;0.93;;;;;;;6.95;96.20;100311.97;5012683;28;20286;-69
2022/10/22 05:56:14;;;;;;;0.60;0.60;;;;;;;7.07;97.02;100322.16;5011817;28;20693;-69
2022/10/22 05:58:43;;;;;;;0.77;0.77;;;;;;;7.09;97.46;100323.00;5011966;28;20581;-69
2022/10/22 06:01:13;;;;;;;0.60;0.60;;;;;;;7.15;97.88;100328.09;5010964;28;20214;-69
2022/10/22 06:03:40;;;;;;;0.67;0.67;;;;;;;7.24;98.83;100322.97;5011458;28;20719;-69
2022/10/22 06:06:17;;;;;;;0.60;0.60;;;;;;;7.30;99.64;100322.94;5016217;28;20232;-69
2022/10/22 06:08:44;;;;;;;0.50;0.50;;;;;;;7.35;100.00;100321.25;5033005;28;20296;-69
2022/10/22 06:11:11;;;;;;;0.70;0.70;;;;;;;7.44;100.00;100320.38;5032665;28;20585;-70
2022/10/22 06:13:38;;;;;;;0.90;0.90;;;;;;;7.43;100.00;100305.09;5032195;28;20599;-70
2022/10/22 06:16:07;;;;;;;0.60;0.60;;;;;;;7.55;100.00;100317.78;5032212;28;20664;-69
2022/10/22 06:18:33;;;;;;;0.70;0.70;;;;;;;7.65;100.00;100319.47;5032868;28;20204;-69
2022/10/22 06:21:05;;;;;;;0.70;0.70;;;;;;;7.74;100.00;100324.53;5035791;28;20308;-69
2022/10/22 06:23:31;;;;;;;0.60;0.60;;;;;;;7.87;100.00;100321.06;5034232;28;20197;-69
2022/10/22 06:25:59;;;;;;;0.67;0.67;;;;;;;7.92;100.00;100320.19;5031485;28;20205;-69
2022/10/22 06:28:26;;;;;;;0.60;0.60;;;;;;;8.10;100.00;100316.69;5035976;28;20197;-70
2022/10/22 06:30:53;;;;;;;0.83;0.83;;;;;;;8.20;100.00;100304.72;5031182;28;20270;-69
2022/10/22 06:33:21;;;;;;;0.70;0.70;;;;;;;8.36;100.00;100314.03;5031497;28;20228;-70
2022/10/22 06:35:48;;;;;;;0.60;0.60;;;;;;;8.50;100.00;100319.03;5028507;28;20228;-70
2022/10/22 06:38:15;;;;;;;0.83;0.83;;;;;;;8.61;100.00;100327.47;5021135;28;20263;-69
2022/10/22 06:40:43;;;;;;;0.73;0.73;;;;;;;8.67;100.00;100305.25;5033531;28;20197;-69
2022/10/22 06:43:10;;;;;;;0.60;0.60;;;;;;;8.86;100.00;100328.97;5031586;28;20212;-69
2022/10/22 06:45:37;;;;;;;0.70;0.70;;;;;;;8.91;99.58;100328.09;5029269;28;20205;-69
2022/10/22 06:48:04;;;;;;;1.00;1.00;;;;;;;9.12;98.66;100328.72;5030329;28;20204;-67
2022/10/22 06:50:34;;;;;;;0.60;0.60;;;;;;;9.23;98.47;100340.56;5032291;28;20193;-67
2022/10/22 06:53:01;;;;;;;0.87;0.87;;;;;;;9.41;97.42;100345.50;5033672;28;20197;-67
2022/10/22 06:55:28;;;;;;;0.90;0.90;;;;;;;9.56;97.18;100353.88;5031149;28;20959;-67
2022/10/22 06:57:55;;;;;;;0.47;0.47;;;;;;;9.66;96.88;100352.91;5031217;28;20208;-66
2022/10/22 07:00:22;;;;;;;0.50;0.50;;;;;;;9.79;95.56;100362.97;5033594;28;20213;-67
2022/10/22 07:02:52;;;;;;;0.60;0.60;;;;;;;9.95;94.09;100353.44;5034907;28;20220;-67
2022/10/22 07:05:19;;;;;;;0.70;0.70;;;;;;;10.09;93.90;100356.63;5033090;28;20300;-67
2022/10/22 07:07:48;;;;;;;0.57;0.57;;;;;;;10.14;93.04;100333.56;5016506;28;20225;-68
2022/10/22 07:10:15;;;;;;;0.83;0.83;;;;;;;10.35;91.79;100351.19;5011854;28;20194;-68
2022/10/22 07:12:41;;;;;;;0.50;0.50;;;;;;;10.53;91.01;100351.78;5009289;28;20202;-67
2022/10/22 07:15:09;;;;;;;0.50;0.50;;;;;;;10.59;90.27;100347.44;5005904;28;20229;-68
2022/10/22 07:17:36;;;;;;;0.60;0.60;;;;;;;10.76;89.01;100346.28;5008537;28;20885;-68
2022/10/22 07:20:03;;;;;;;0.67;0.67;;;;;;;10.97;88.41;100351.09;5008487;28;20248;-68
2022/10/22 07:22:30;;;;;;;0.60;0.60;;;;;;;11.05;88.00;100348.38;5010042;28;20304;-67
2022/10/22 07:24:58;;;;;;;1.20;1.20;;;;;;;11.02;87.38;100327.91;5010833;28;20202;-68
2022/10/22 07:27:25;;;;;;;0.80;0.80;;;;;;;11.15;87.13;100355.03;5008236;28;20206;-67
2022/10/22 07:29:52;;;;;;;0.87;0.87;;;;;;;11.33;87.32;100354.75;5010773;28;20463;-70
2022/10/22 07:32:18;;;;;;;0.53;0.53;;;;;;;11.68;86.06;100340.38;5011052;28;20815;-70
2022/10/22 07:34:45;;;;;;;0.60;0.60;;;;;;;11.76;84.82;100353.97;5010725;28;20221;-70
2022/10/22 07:37:12;;;;;;;0.60;0.60;;;;;;;11.86;83.95;100356.31;5010996;28;20220;-70
2022/10/22 07:39:39;;;;;;;0.60;0.60;;;;;;;12.10;83.90;100350.69;5010889;28;20213;-70
2022/10/22 07:42:07;;;;;;;0.70;0.70;;;;;;;12.27;83.26;100358.03;5010939;28;20209;-69
2022/10/22 07:44:34;;;;;;;0.53;0.53;;;;;;;12.37;82.27;100359.53;5010438;28;20574;-70
2022/10/22 07:47:01;;;;;;;0.60;0.60;;;;;;;12.43;81.86;100354.25;5009921;28;20206;-70
2022/10/22 07:49:27;;;;;;;1.70;0.70;;;;;;;12.69;81.22;100350.22;5009376;28;20255;-70
2022/10/22 07:51:55;;;;;;;0.60;0.60;;;;;;;12.91;79.30;100347.09;5009794;28;20578;-70
2022/10/22 07:54:22;;;;;;;0.60;0.60;;;;;;;13.00;79.55;100340.84;5009308;28;20289;-70
2022/10/22 07:56:49;;;;;;;0.40;0.40;;;;;;;13.20;77.99;100354.13;5013052;28;20223;-70
2022/10/22 07:59:17;;;;;;;0.57;0.57;;;;;;;13.32;77.48;100346.06;5009096;28;20244;-69
2022/10/22 08:01:45;;;;;;;0.60;0.60;;;;;;;13.46;76.19;100343.13;5010325;28;20205;-70
2022/10/22 08:04:12;;;;;;;0.50;0.50;;;;;;;13.61;75.33;100334.97;5010323;28;20209;-68
2022/10/22 08:06:39;;;;;;;0.50;0.50;;;;;;;13.83;75.42;100340.41;5011112;28;20225;-70
2022/10/22 08:09:06;;;;;;;0.50;0.50;;;;;;;14.00;74.79;100344.16;5011455;28;20697;-70
2022/10/22 08:11:33;;;;;;;1.53;1.53;;;;;;;14.07;73.61;100330.22;5011007;28;20231;-70
2022/10/22 08:14:00;;;;;;;0.60;0.60;;;;;;;14.24;73.96;100336.59;5011293;28;20206;-69
2022/10/22 08:16:29;;;;;;;0.67;0.67;;;;;;;14.43;74.54;100343.75;5010748;28;20216;-69
2022/10/22 08:18:56;;;;;;;1.77;1.77;;;;;;;14.60;74.55;100338.09;5011246;28;20683;-70
2022/10/22 08:21:22;;;;;;;0.90;0.90;;;;;;;14.69;73.27;100330.03;5011192;28;20674;-69
2022/10/22 08:23:49;;;;;;;0.80;0.80;;;;;;;14.84;72.75;100344.19;5011068;28;20583;-70
2022/10/22 08:26:17;;;;;;;0.93;0.93;;;;;;;14.96;72.57;100344.63;5010521;28;21587;-68
2022/10/22 08:28:43;;;;;;;0.53;0.53;;;;;;;15.13;71.63;100338.91;5011144;28;20300;-70
2022/10/22 08:31:11;;;;;;;0.50;0.50;;;;;;;15.35;69.79;100331.28;5010416;28;20202;-70
2022/10/22 08:33:40;;;;;;;1.13;1.13;;;;;;;15.44;70.59;100331.78;5010854;28;20208;-70
2022/10/22 08:36:07;;;;;;;0.50;0.50;;;;;;;15.51;69.39;100330.69;5006661;28;20265;-70
2022/10/22 08:38:35;;;;;;;0.40;0.40;;;;;;;15.51;69.26;100325.53;5010819;28;20260;-69
2022/10/22 08:41:09;;;;;;;0.70;0.70;;;;;;;15.61;69.87;100326.88;5010587;28;20233;-70
2022/10/22 08:44:14;;;;;;;1.07;0.70;;;;;;;15.72;67.90;100321.34;5010662;28;20662;-70
2022/10/22 08:47:04;;;;;;;0.60;0.60;;;;;;;15.85;69.82;100311.38;4988805;28;20199;-69
2022/10/22 08:49:36;;;;;;;1.03;1.03;;;;;;;15.91;67.20;100312.00;5003886;28;20209;-69
2022/10/22 08:52:06;;;;;;;0.60;0.60;;;;;;;15.92;67.70;100302.50;5009177;28;20303;-70
2022/10/22 08:54:42;;;;;;;0.60;0.60;;;;;;;16.01;66.61;100308.16;5009857;28;20665;-68
2022/10/22 08:57:23;;;;;;;0.60;0.60;;;;;;;16.08;66.86;100295.84;5010617;28;20229;-70
2022/10/22 08:59:56;;;;;;;0.60;0.60;;;;;;;16.21;67.47;100299.66;5010079;28;20260;-70
2022/10/22 09:02:34;;;;;;;0.57;0.57;;;;;;;16.19;68.55;100306.59;5010250;28;20217;-70
2022/10/22 09:05:16;;;;;;;0.40;0.40;;;;;;;16.36;67.19;100295.59;5010913;28;20263;-70
2022/10/22 09:07:48;;;;;;;0.67;0.67;;;;;;;16.51;68.49;100293.25;5027150;28;20233;-69
2022/10/22 09:10:17;;;;;;;0.40;0.40;;;;;;;16.66;67.18;100292.69;5030719;28;20683;-69
2022/10/22 09:12:45;;;;;;;0.57;0.57;;;;;;;16.84;66.40;100295.38;5028591;28;20206;-69
2022/10/22 09:15:16;;;;;;;0.57;0.57;;;;;;;17.08;68.12;100284.00;5028559;28;20704;-70
2022/10/22 09:17:54;;;;;;;0.60;0.60;;;;;;;17.18;64.66;100287.91;5033260;28;20201;-69
2022/10/22 09:20:28;;;;;;;0.60;0.60;;;;;;;17.29;63.71;100283.94;5033583;28;20205;-70
2022/10/22 09:23:04;;;;;;;0.53;0.53;;;;;;;17.29;63.53;100267.53;5038747;28;20200;-69
2022/10/22 09:25:35;;;;;;;0.50;0.50;;;;;;;17.38;62.73;100272.34;5033593;28;20203;-69
2022/10/22 09:28:02;;;;;;;0.70;0.70;;;;;;;17.50;63.47;100282.16;5033930;28;20612;-69
2022/10/22 09:30:31;;;;;;;0.67;0.67;;;;;;;17.52;63.61;100280.31;5035573;28;20197;-69
2022/10/22 09:33:02;;;;;;;0.70;0.70;;;;;;;17.73;62.21;100279.41;5033613;28;20205;-69
2022/10/22 09:35:34;;;;;;;0.57;0.57;;;;;;;17.81;61.45;100277.28;5033599;28;20670;-69
2022/10/22 09:38:07;;;;;;;0.40;0.40;;;;;;;17.88;62.52;100264.88;5036044;28;20574;-70
2022/10/22 09:40:43;;;;;;;0.50;0.50;;;;;;;17.97;61.14;100267.03;5033550;28;20201;-70
2022/10/22 09:43:13;;;;;;;0.40;0.40;;;;;;;17.80;61.03;100254.84;5033421;28;20204;-69
2022/10/22 09:45:40;;;;;;;0.70;0.70;;;;;;;17.60;61.37;100247.16;5033177;28;20228;-69
2022/10/22 09:48:18;;;;;;;0.40;0.40;;;;;;;17.41;62.00;100235.06;5033299;28;20582;-70
2022/10/22 09:50:48;;;;;;;0.50;0.50;;;;;;;17.22;62.18;100235.03;5029621;28;20665;-69
2022/10/22 09:53:20;;;;;;;0.90;0.90;;;;;;;17.21;62.20;100239.38;5031980;28;20197;-70
2022/10/22 09:55:51;;;;;;;0.87;0.87;;;;;;;17.05;62.68;100221.97;5032875;28;20235;-69
2022/10/22 09:58:19;;;;;;;0.40;0.40;;;;;;;17.23;63.26;100231.53;5033321;28;20198;-70
2022/10/22 10:00:53;;;;;;;0.50;0.50;;;;;;;17.38;62.71;100219.66;5032917;28;20201;-69
2022/10/22 10:03:22;;;;;;;0.50;0.50;;;;;;;17.62;62.39;100229.75;5033660;28;20193;-69
2022/10/22 10:05:53;;;;;;;0.67;0.67;;;;;;;17.69;61.95;100220.81;5033126;28;20685;-69
2022/10/22 10:08:21;;;;;;;0.50;0.50;;;;;;;17.74;61.82;100218.81;5033120;28;20543;-69
2022/10/22 10:10:51;;;;;;;0.43;0.43;;;;;;;17.74;61.95;100224.00;5033090;28;20204;-70
2022/10/22 10:13:38;;;;;;;0.53;0.53;;;;;;;17.63;61.12;100226.28;5032061;28;20197;-69
2022/10/22 10:16:12;;;;;;;0.40;0.40;;;;;;;17.47;61.53;100204.50;5033646;28;20217;-69
2022/10/22 10:18:52;;;;;;;0.70;0.70;;;;;;;17.45;61.76;100208.91;5035279;28;20274;-70
2022/10/22 10:21:30;;;;;;;0.80;0.80;;;;;;;17.49;62.54;100197.50;5032728;28;20205;-70
2022/10/22 10:24:05;;;;;;;0.50;0.50;;;;;;;17.57;62.25;100192.00;5033347;28;20201;-69
2022/10/22 10:26:37;;;;;;;0.47;0.47;;;;;;;17.73;62.08;100198.16;5032765;28;20197;-69
2022/10/22 10:29:22;;;;;;;0.50;0.50;;;;;;;17.84;60.20;100188.94;5032442;28;20198;-69
2022/10/22 10:32:07;;;;;;;0.40;0.40;;;;;;;17.83;60.61;100174.28;5032689;28;20707;-69
2022/10/22 10:34:43;;;;;;;0.60;0.60;;;;;;;17.79;60.30;100180.56;5033850;28;20700;-69
2022/10/22 10:37:21;;;;;;;0.50;0.50;;;;;;;17.81;61.26;100168.34;5030426;28;20231;-69
2022/10/22 10:40:11;;;;;;;0.60;0.60;;;;;;;18.03;59.80;100172.53;5032510;28;20212;-69
2022/10/22 10:42:43;;;;;;;0.73;0.73;;;;;;;18.24;59.91;100166.28;5032803;28;20551;-69
2022/10/22 10:45:20;;;;;;;0.38;0.38;;;;;;;18.45;58.69;100149.63;5032295;28;20452;-68
2022/10/22 10:48:23;;;;;;;0.30;0.30;;;;;;;18.62;57.46;100147.03;5027421;28;20509;-70
2022/10/22 10:50:59;;;;;;;0.50;0.50;;;;;;;18.80;57.43;100129.69;4976520;28;20593;-70
2022/10/22 10:53:46;;;;;;;0.53;0.53;;;;;;;19.02;56.39;100139.78;5032253;28;20213;-71
2022/10/22 10:56:30;;;;;;;0.50;0.50;;;;;;;19.00;56.63;100126.84;5033545;28;20230;-70
2022/10/22 10:59:10;;;;;;;0.50;0.50;;;;;;;19.03;56.19;100131.06;5031815;28;20749;-70
2022/10/22 11:01:46;;;;;;;0.80;0.80;;;;;;;19.01;56.28;100130.28;5030884;28;20215;-70
2022/10/22 11:04:59;;;;;;;0.43;0.43;;;;;;;19.11;55.61;100114.13;5031352;28;20608;-71
2022/10/22 11:07:31;;;;;;;0.40;0.40;;;;;;;18.99;55.05;100103.56;4950307;28;20243;-70
2022/10/22 11:10:03;;;;;;;0.50;0.50;;;;;;;19.21;54.68;100104.94;4988428;28;20206;-71
2022/10/22 11:12:34;;;;;;;0.50;0.50;;;;;;;19.22;54.17;100100.56;5010091;28;20199;-70
2022/10/22 11:15:07;;;;;;;0.50;0.50;;;;;;;19.21;54.38;100088.47;5009668;28;20218;-71
2022/10/22 11:17:39;;;;;;;0.83;0.83;;;;;;;19.20;54.57;100081.59;5008520;28;20245;-70
2022/10/22 11:20:16;;;;;;;0.50;0.50;;;;;;;19.26;55.06;100089.06;5009327;28;20583;-70
2022/10/22 11:22:48;;;;;;;0.53;0.50;;;;;;;19.22;54.90;100090.16;5006576;28;20229;-72
2022/10/22 11:25:21;;;;;;;0.63;0.63;;;;;;;19.26;55.05;100078.66;5005551;28;20214;-70
2022/10/22 11:27:52;;;;;;;3.13;3.03;;;;;;;19.23;55.16;100066.69;5008876;28;20570;-70
2022/10/22 11:30:21;;;;;;;3.30;2.70;;;;;;;19.40;53.62;100078.78;5009240;28;20202;-70
2022/10/22 11:32:53;;;;;;;1.00;1.00;;;;;;;19.48;54.43;100071.41;5009344;28;20202;-70
2022/10/22 11:35:24;;;;;;;1.20;1.20;;;;;;;19.58;53.17;100067.34;5008189;28;20202;-70
2022/10/22 11:37:54;;;;;;;1.30;1.10;;;;;;;19.61;52.99;100071.56;5008833;28;20225;-71
2022/10/22 11:40:31;;;;;;;1.20;1.17;;;;;;;19.45;53.16;100045.53;5008426;28;20203;-70
2022/10/22 11:43:03;;;;;;;0.40;0.40;;;;;;;19.64;52.42;100054.00;5008071;28;20199;-70